createdAt,value
2018-09-03T00:02:04.245Z,4.47
2018-09-03T00:04:31.578Z,4.23
2018-09-03T00:06:59.586Z,4.33
2018-09-03T00:09:28.783Z,4.08
2018-09-03T00:11:56.192Z,4.07
2018-09-03T00:14:23.538Z,3.70
2018-09-03T00:16:50.890Z,3.98
2018-09-03T00:19:18.439Z,3.20
2018-09-03T00:21:46.202Z,3.65
2018-09-03T00:24:13.581Z,3.50
2018-09-03T00:26:41.013Z,3.60
2018-09-03T00:29:08.383Z,4.37
2018-09-03T00:31:41.477Z,4.30
2018-09-03T00:34:14.110Z,3.93
2018-09-03T00:36:46.730Z,3.93
2018-09-03T00:39:19.372Z,4.00
2018-09-03T00:41:52.074Z,4.05
2018-09-03T00:44:24.770Z,4.20
2018-09-03T00:46:57.885Z,4.20
2018-09-03T00:49:26.180Z,4.30
2018-09-03T00:51:53.595Z,5.05
2018-09-03T00:54:20.984Z,4.22
2018-09-03T00:56:48.443Z,3.95
2018-09-03T00:59:16.443Z,4.70
2018-09-03T01:01:47.894Z,4.50
2018-09-03T01:04:15.610Z,4.33
2018-09-03T01:06:42.917Z,3.62
2018-09-03T01:09:10.286Z,4.23
2018-09-03T01:11:37.624Z,4.00
2018-09-03T01:14:05.017Z,4.93
2018-09-03T01:16:32.503Z,4.00
2018-09-03T01:19:00.208Z,4.50
2018-09-03T01:21:27.986Z,4.20
2018-09-03T01:23:55.777Z,4.40
2018-09-03T01:26:23.794Z,4.30
2018-09-03T01:28:51.241Z,5.33
2018-09-03T01:31:20.563Z,4.20
2018-09-03T01:33:49.905Z,4.08
2018-09-03T01:36:21.817Z,3.90
2018-09-03T01:38:49.195Z,4.25
2018-09-03T01:41:17.474Z,4.10
2018-09-03T01:43:45.125Z,4.80
2018-09-03T01:46:12.791Z,4.83
2018-09-03T01:48:40.318Z,4.83
2018-09-03T01:51:07.632Z,4.50
2018-09-03T01:53:35.711Z,4.30
2018-09-03T01:56:03.113Z,4.70
2018-09-03T01:58:32.012Z,5.20
2018-09-03T02:00:59.413Z,4.60
2018-09-03T02:03:26.796Z,5.50
2018-09-03T02:05:54.178Z,4.42
2018-09-03T02:08:21.514Z,4.20
2018-09-03T02:10:49.335Z,4.35
2018-09-03T02:13:17.283Z,4.30
2018-09-03T02:15:45.440Z,4.08
2018-09-03T02:18:13.874Z,3.92
2018-09-03T02:20:41.733Z,4.70
2018-09-03T02:23:09.955Z,4.42
2018-09-03T02:25:37.289Z,5.45
2018-09-03T02:28:09.014Z,4.50
2018-09-03T02:30:36.574Z,3.95
2018-09-03T02:33:03.963Z,4.83
2018-09-03T02:35:31.341Z,4.95
2018-09-03T02:37:58.807Z,4.55
2018-09-03T02:40:30.765Z,4.90
2018-09-03T02:42:58.095Z,4.90
2018-09-03T02:45:25.417Z,5.72
2018-09-03T02:47:53.382Z,5.70
2018-09-03T02:50:21.027Z,4.50
2018-09-03T02:52:48.583Z,4.47
2018-09-03T02:55:16.036Z,4.62
2018-09-03T02:57:43.458Z,4.45
2018-09-03T03:00:11.513Z,4.40
2018-09-03T03:02:38.966Z,4.40
2018-09-03T03:05:06.386Z,4.58
2018-09-03T03:07:34.535Z,4.40
2018-09-03T03:10:01.893Z,5.25
2018-09-03T03:12:29.210Z,4.45
2018-09-03T03:15:01.342Z,4.00
2018-09-03T03:17:29.322Z,4.20
2018-09-03T03:19:56.743Z,4.85
2018-09-03T03:22:24.692Z,5.12
2018-09-03T03:24:52.043Z,4.45
2018-09-03T03:27:19.616Z,4.22
2018-09-03T03:29:51.477Z,4.08
2018-09-03T03:32:18.920Z,3.92
2018-09-03T03:34:50.441Z,4.10
2018-09-03T03:37:17.767Z,4.30
2018-09-03T03:39:45.147Z,4.33
2018-09-03T03:42:12.518Z,4.00
2018-09-03T03:44:39.963Z,4.17
2018-09-03T03:47:07.317Z,4.50
2018-09-03T03:49:35.667Z,4.03
2018-09-03T03:52:03.103Z,4.53
2018-09-03T03:54:30.395Z,3.80
2018-09-03T03:56:57.843Z,4.10
2018-09-03T03:59:25.142Z,4.20
2018-09-03T04:01:53.157Z,4.60
2018-09-03T04:04:20.592Z,3.77
2018-09-03T04:06:47.933Z,3.58
2018-09-03T04:09:15.446Z,4.53
2018-09-03T04:11:42.757Z,4.00
2018-09-03T04:14:10.022Z,4.80
2018-09-03T04:16:38.011Z,4.72
2018-09-03T04:19:05.653Z,4.40
2018-09-03T04:21:32.988Z,5.35
2018-09-03T04:24:00.331Z,3.90
2018-09-03T04:26:27.903Z,4.55
2018-09-03T04:28:55.389Z,3.80
2018-09-03T04:31:22.714Z,4.00
2018-09-03T04:33:54.846Z,4.30
2018-09-03T04:38:49.011Z,4.03
2018-09-03T04:41:16.413Z,3.98
2018-09-03T04:43:44.067Z,4.72
2018-09-03T04:46:12.465Z,4.35
2018-09-03T04:48:40.347Z,3.65
2018-09-03T04:51:08.351Z,4.15
2018-09-03T04:53:35.763Z,4.25
2018-09-03T04:56:03.731Z,3.90
2018-09-03T04:58:34.932Z,4.25
2018-09-03T05:01:02.344Z,4.10
2018-09-03T05:03:29.758Z,4.20
2018-09-03T05:05:57.116Z,3.55
2018-09-03T05:08:24.485Z,4.28
2018-09-03T05:10:51.800Z,3.92
2018-09-03T05:13:19.118Z,3.62
2018-09-03T05:15:46.420Z,4.15
2018-09-03T05:18:13.774Z,3.80
2018-09-03T05:20:41.188Z,4.75
2018-09-03T05:23:08.470Z,4.25
2018-09-03T05:25:35.808Z,4.25
2018-09-03T05:28:03.098Z,4.53
2018-09-03T05:30:30.393Z,4.75
2018-09-03T05:32:58.146Z,4.90
2018-09-03T05:35:25.486Z,3.92
2018-09-03T05:37:52.785Z,4.12
2018-09-03T05:40:20.062Z,4.37
2018-09-03T05:42:47.405Z,4.70
2018-09-03T05:45:14.698Z,4.75
2018-09-03T05:47:42.041Z,4.33
2018-09-03T05:50:09.400Z,5.22
2018-09-03T05:52:36.618Z,5.67
2018-09-03T05:55:03.966Z,4.90
2018-09-03T05:57:31.258Z,4.50
2018-09-03T05:59:58.533Z,4.80
2018-09-03T06:02:25.847Z,4.90
2018-09-03T06:04:53.238Z,4.75
2018-09-03T06:07:21.189Z,5.10
2018-09-03T06:09:48.548Z,4.90
2018-09-03T06:12:15.975Z,5.95
2018-09-03T06:14:43.419Z,5.90
2018-09-03T06:17:10.760Z,6.22
2018-09-03T06:19:38.030Z,5.70
2018-09-03T06:22:05.310Z,5.70
2018-09-03T06:24:32.683Z,4.85
2018-09-03T06:27:00.025Z,5.60
2018-09-03T06:29:27.371Z,5.10
2018-09-03T06:31:54.661Z,6.85
2018-09-03T06:34:22.342Z,5.47
2018-09-03T06:36:49.659Z,5.40
2018-09-03T06:39:17.054Z,6.30
2018-09-03T06:41:44.374Z,6.45
2018-09-03T06:44:11.729Z,7.08
2018-09-03T06:46:40.026Z,7.45
2018-09-03T06:49:07.363Z,6.10
2018-09-03T06:51:34.832Z,6.53
2018-09-03T06:54:02.250Z,7.35
2018-09-03T06:56:29.803Z,7.95
2018-09-03T06:58:57.765Z,7.70
2018-09-03T07:01:25.227Z,7.05
2018-09-03T07:03:52.717Z,6.92
2018-09-03T07:06:20.016Z,6.90
2018-09-03T07:08:48.135Z,7.75
2018-09-03T07:11:15.587Z,7.28
2018-09-03T07:13:43.150Z,6.15
2018-09-03T07:16:10.467Z,8.47
2018-09-03T07:18:37.928Z,6.42
2018-09-03T07:21:05.974Z,5.58
2018-09-03T07:23:33.366Z,5.03
2018-09-03T07:26:00.701Z,6.03
2018-09-03T07:28:28.744Z,5.73
2018-09-03T07:30:56.466Z,5.93
2018-09-03T07:33:23.873Z,5.70
2018-09-03T07:35:51.295Z,5.43
2018-09-03T07:38:18.675Z,6.30
2018-09-03T07:40:46.076Z,5.63
2018-09-03T07:43:13.415Z,6.83
2018-09-03T07:45:40.707Z,5.70
2018-09-03T07:48:08.017Z,5.87
2018-09-03T07:50:35.291Z,5.50
2018-09-03T07:53:02.682Z,5.37
2018-09-03T07:55:30.005Z,6.23
2018-09-03T07:57:57.320Z,6.30
2018-09-03T08:00:24.628Z,6.10
2018-09-03T08:02:51.977Z,5.70
2018-09-03T08:05:19.280Z,5.60
2018-09-03T08:07:46.602Z,6.07
2018-09-03T08:10:13.880Z,6.27
2018-09-03T08:12:41.263Z,6.13
2018-09-03T08:15:08.672Z,6.13
2018-09-03T08:17:35.978Z,6.63
2018-09-03T08:20:03.608Z,6.07
2018-09-03T08:22:30.889Z,5.80
2018-09-03T08:24:58.182Z,5.50
2018-09-03T08:27:25.472Z,5.40
2018-09-03T08:29:52.891Z,6.47
2018-09-03T08:32:20.182Z,6.40
2018-09-03T08:34:47.480Z,5.90
2018-09-03T08:37:14.723Z,6.67
2018-09-03T08:39:42.010Z,5.60
2018-09-03T08:42:09.319Z,5.33
2018-09-03T08:44:36.603Z,7.00
2018-09-03T08:47:03.908Z,7.10
2018-09-03T08:49:31.273Z,6.37
2018-09-03T08:51:58.569Z,6.60
2018-09-03T08:54:25.878Z,5.97
2018-09-03T08:56:53.269Z,7.13
2018-09-03T08:59:20.483Z,6.17
2018-09-03T09:01:47.799Z,6.77
2018-09-03T09:04:15.089Z,6.87
2018-09-03T09:06:42.376Z,7.17
2018-09-03T09:09:09.670Z,7.50
2018-09-03T09:11:37.005Z,6.93
2018-09-03T09:14:04.273Z,7.40
2018-09-03T09:16:31.669Z,7.00
2018-09-03T09:18:58.922Z,8.83
2018-09-03T09:21:26.222Z,8.77
2018-09-03T09:23:53.510Z,8.17
2018-09-03T09:26:20.798Z,8.00
2018-09-03T09:28:48.079Z,9.40
2018-09-03T09:31:15.379Z,8.33
2018-09-03T09:33:42.666Z,8.63
2018-09-03T09:36:10.023Z,8.43
2018-09-03T09:38:37.389Z,8.40
2018-09-03T09:41:04.885Z,8.30
2018-09-03T09:43:32.186Z,8.60
2018-09-03T09:45:59.485Z,9.57
2018-09-03T09:48:26.789Z,8.27
2018-09-03T09:50:54.089Z,9.20
2018-09-03T09:53:21.387Z,8.33
2018-09-03T09:55:48.639Z,8.70
2018-09-03T09:58:16.395Z,9.37
2018-09-03T10:00:48.903Z,10.33
2018-09-03T10:03:16.191Z,10.60
2018-09-03T10:05:43.518Z,11.37
2018-09-03T10:08:10.825Z,11.73
2018-09-03T10:10:38.101Z,10.77
2018-09-03T10:13:05.513Z,9.80
2018-09-03T10:15:32.804Z,9.70
2018-09-03T10:18:00.222Z,11.13
2018-09-03T10:20:27.475Z,9.67
2018-09-03T10:22:54.906Z,11.30
2018-09-03T10:25:22.458Z,12.37
2018-09-03T10:27:50.075Z,13.27
2018-09-03T10:30:17.650Z,11.80
2018-09-03T10:32:45.265Z,12.33
2018-09-03T10:35:13.028Z,11.53
2018-09-03T10:37:40.402Z,12.40
2018-09-03T10:40:08.080Z,15.13
2018-09-03T10:42:35.450Z,13.90
2018-09-03T10:45:03.979Z,13.27
2018-09-03T10:47:31.819Z,14.80
2018-09-03T10:49:59.467Z,14.20
2018-09-03T10:52:27.121Z,13.70
2018-09-03T10:54:55.069Z,12.93
2018-09-03T10:57:22.427Z,12.47
2018-09-03T10:59:49.882Z,14.10
2018-09-03T11:02:17.606Z,11.50
2018-09-03T11:04:45.277Z,12.77
2018-09-03T11:07:12.688Z,14.03
2018-09-03T11:09:40.052Z,13.47
2018-09-03T11:12:08.304Z,14.63
2018-09-03T11:14:39.773Z,12.23
2018-09-03T11:17:07.192Z,11.70
2018-09-03T11:19:38.880Z,12.40
2018-09-03T11:22:06.289Z,11.70
2018-09-03T11:24:42.455Z,12.20
2018-09-03T11:27:09.901Z,12.77
2018-09-03T11:29:37.329Z,14.03
2018-09-03T11:32:05.129Z,14.20
2018-09-03T11:34:32.597Z,15.07
2018-09-03T11:37:00.871Z,14.30
2018-09-03T11:39:28.822Z,13.47
2018-09-03T11:41:56.297Z,13.30
2018-09-03T11:44:23.732Z,14.27
2018-09-03T11:46:51.069Z,12.80
2018-09-03T11:49:18.434Z,15.37
2018-09-03T11:51:45.840Z,12.13
2018-09-03T11:54:13.166Z,13.70
2018-09-03T11:56:41.059Z,13.90
2018-09-03T11:59:08.414Z,13.97
2018-09-03T12:01:35.789Z,14.07
2018-09-03T12:04:03.155Z,14.40
2018-09-03T12:06:30.470Z,14.27
2018-09-03T12:08:58.000Z,13.30
2018-09-03T12:11:25.318Z,14.57
2018-09-03T12:13:52.855Z,14.73
2018-09-03T12:16:23.550Z,14.37
2018-09-03T12:18:51.355Z,15.07
2018-09-03T12:21:19.244Z,14.33
2018-09-03T12:23:46.582Z,13.70
2018-09-03T12:26:14.020Z,15.33
2018-09-03T12:28:41.299Z,15.53
2018-09-03T12:31:08.919Z,15.23
2018-09-03T12:33:36.256Z,15.23
2018-09-03T12:36:04.460Z,16.53
2018-09-03T12:38:31.814Z,16.03
2018-09-03T12:40:59.208Z,15.93
2018-09-03T12:43:26.825Z,14.67
2018-09-03T12:45:59.082Z,15.10
2018-09-03T12:48:26.460Z,16.40
2018-09-03T12:50:53.710Z,15.33
2018-09-03T12:53:21.005Z,16.20
2018-09-03T12:55:48.304Z,15.97
2018-09-03T12:58:15.626Z,16.20
2018-09-03T13:00:42.933Z,15.67
2018-09-03T13:03:10.791Z,15.53
2018-09-03T13:05:38.030Z,17.73
2018-09-03T13:08:05.553Z,18.50
2018-09-03T13:10:32.830Z,17.37
2018-09-03T13:13:00.322Z,16.87
2018-09-03T13:15:27.587Z,17.90
2018-09-03T13:17:54.885Z,19.10
2018-09-03T13:20:22.300Z,17.60
2018-09-03T13:22:49.600Z,18.83
2018-09-03T13:25:17.245Z,17.90
2018-09-03T13:27:44.582Z,18.10
2018-09-03T13:30:11.949Z,19.83
2018-09-03T13:32:39.293Z,17.83
2018-09-03T13:35:07.194Z,19.80
2018-09-03T13:37:34.866Z,20.63
2018-09-03T13:40:02.191Z,19.33
2018-09-03T13:42:29.576Z,18.37
2018-09-03T13:44:56.895Z,19.97
2018-09-03T13:47:24.686Z,20.67
2018-09-03T13:49:52.096Z,20.07
2018-09-03T13:52:19.440Z,21.23
2018-09-03T13:54:46.916Z,20.60
2018-09-03T13:57:14.251Z,21.40
2018-09-03T13:59:41.553Z,21.37
2018-09-03T14:02:09.142Z,21.23
2018-09-03T14:04:36.514Z,18.60
2018-09-03T14:07:03.907Z,21.73
2018-09-03T14:09:32.290Z,21.20
2018-09-03T14:11:59.590Z,20.20
2018-09-03T14:14:26.934Z,21.90
2018-09-03T14:16:54.341Z,21.50
2018-09-03T14:19:21.725Z,22.43
2018-09-03T14:21:49.019Z,22.23
2018-09-03T14:24:16.447Z,20.40
2018-09-03T14:26:43.772Z,21.87
2018-09-03T14:29:11.404Z,21.90
2018-09-03T14:31:39.379Z,21.60
2018-09-03T14:34:06.766Z,22.23
2018-09-03T14:36:34.075Z,21.23
2018-09-03T14:39:01.383Z,23.20
2018-09-03T14:41:28.690Z,23.23
2018-09-03T14:43:55.992Z,23.53
2018-09-03T14:46:23.275Z,22.77
2018-09-03T14:48:50.585Z,22.07
2018-09-03T14:51:17.933Z,21.10
2018-09-03T14:53:45.198Z,24.10
2018-09-03T14:56:12.607Z,21.73
2018-09-03T14:58:39.895Z,22.47
2018-09-03T15:01:07.186Z,23.57
2018-09-03T15:03:34.511Z,22.60
2018-09-03T15:06:01.898Z,23.40
2018-09-03T15:08:29.343Z,22.73
2018-09-03T15:10:56.615Z,23.27
2018-09-03T15:13:23.927Z,21.53
2018-09-03T15:15:51.227Z,23.67
2018-09-03T15:18:18.566Z,21.93
2018-09-03T15:20:45.852Z,23.73
2018-09-03T15:23:13.166Z,21.37
2018-09-03T15:25:40.429Z,22.30
2018-09-03T15:28:07.718Z,23.67
2018-09-03T15:30:35.019Z,23.80
2018-09-03T15:33:02.378Z,22.30
2018-09-03T15:35:29.656Z,24.23
2018-09-03T15:37:56.999Z,20.97
2018-09-03T15:40:24.262Z,20.53
2018-09-03T15:42:51.596Z,21.57
2018-09-03T15:45:19.187Z,22.33
2018-09-03T15:47:46.551Z,19.80
2018-09-03T15:50:14.090Z,21.70
2018-09-03T15:52:41.358Z,20.53
2018-09-03T15:55:08.691Z,22.83
2018-09-03T15:57:36.063Z,21.23
2018-09-03T16:00:03.469Z,21.57
2018-09-03T16:02:30.778Z,20.57
2018-09-03T16:04:58.107Z,19.57
2018-09-03T16:07:25.426Z,19.77
2018-09-03T16:09:52.739Z,19.87
2018-09-03T16:12:20.515Z,21.70
2018-09-03T16:14:47.871Z,21.13
2018-09-03T16:17:15.191Z,20.07
2018-09-03T16:19:42.511Z,20.00
2018-09-03T16:22:09.994Z,21.40
2018-09-03T16:24:37.375Z,20.70
2018-09-03T16:27:04.719Z,21.03
2018-09-03T16:29:32.031Z,20.90
2018-09-03T16:31:59.343Z,20.60
2018-09-03T16:34:26.720Z,20.47
2018-09-03T16:36:54.056Z,19.60
2018-09-03T16:39:21.408Z,22.93
2018-09-03T16:41:48.755Z,18.70
2018-09-03T16:44:16.131Z,18.93
2018-09-03T16:46:43.426Z,20.43
2018-09-03T16:49:10.753Z,20.17
2018-09-03T16:51:38.319Z,21.00
2018-09-03T16:54:05.748Z,20.23
2018-09-03T16:56:33.420Z,20.50
2018-09-03T16:59:00.662Z,19.80
2018-09-03T17:01:28.266Z,19.40
2018-09-03T17:03:55.348Z,20.30
2018-09-03T17:06:22.984Z,21.33
2018-09-03T17:08:50.367Z,20.63
2018-09-03T17:11:17.965Z,22.93
2018-09-03T17:13:45.419Z,22.07
2018-09-03T17:16:16.716Z,21.73
2018-09-03T17:18:44.554Z,20.30
2018-09-03T17:21:12.508Z,21.23
2018-09-03T17:23:39.923Z,19.90
2018-09-03T17:26:07.332Z,19.30
2018-09-03T17:28:35.902Z,20.07
2018-09-03T17:31:03.320Z,19.93
2018-09-03T17:33:30.744Z,19.27
2018-09-03T17:35:58.624Z,19.53
2018-09-03T17:38:27.764Z,17.50
2018-09-03T17:40:55.311Z,19.90
2018-09-03T17:43:22.677Z,17.90
2018-09-03T17:45:54.072Z,17.90
2018-09-03T17:48:21.449Z,17.67
2018-09-03T17:50:50.225Z,19.40
2018-09-03T17:55:44.471Z,18.17
2018-09-03T17:58:12.422Z,20.10
2018-09-03T18:00:40.190Z,18.10
2018-09-03T18:03:07.683Z,18.07
2018-09-03T18:05:39.364Z,19.57
2018-09-03T18:08:06.876Z,16.80
2018-09-03T18:10:38.518Z,19.70
2018-09-03T18:13:06.192Z,18.60
2018-09-03T18:15:33.610Z,19.50
2018-09-03T18:18:01.002Z,18.73
2018-09-03T18:20:29.195Z,18.80
2018-09-03T18:22:57.239Z,17.23
2018-09-03T18:25:24.615Z,17.23
2018-09-03T18:27:52.917Z,18.67
2018-09-03T18:30:20.597Z,18.47
2018-09-03T18:32:49.010Z,18.07
2018-09-03T18:35:16.839Z,18.10
2018-09-03T18:37:44.329Z,18.27
2018-09-03T18:40:12.430Z,17.80
2018-09-03T18:42:40.007Z,20.47
2018-09-03T18:45:08.367Z,19.17
2018-09-03T18:47:38.519Z,17.27
2018-09-03T18:50:12.436Z,18.50
2018-09-03T18:52:40.551Z,19.87
2018-09-03T18:55:09.351Z,18.27
2018-09-03T18:57:36.965Z,17.67
2018-09-03T19:00:09.959Z,15.70
2018-09-03T19:02:37.396Z,16.73
2018-09-03T19:05:05.310Z,17.70
2018-09-03T19:07:33.196Z,19.23
2018-09-03T19:10:00.858Z,15.70
2018-09-03T19:12:29.156Z,18.60
2018-09-03T19:14:57.189Z,18.13
2018-09-03T19:17:25.170Z,17.20
2018-09-03T19:19:52.851Z,18.73
2018-09-03T19:22:20.343Z,19.00
2018-09-03T19:24:48.108Z,19.07
2018-09-03T19:27:15.775Z,16.83
2018-09-03T19:29:52.168Z,16.97
2018-09-03T19:32:20.303Z,16.07
2018-09-03T19:34:47.995Z,16.70
2018-09-03T19:37:15.393Z,16.00
2018-09-03T19:39:43.055Z,17.10
2018-09-03T19:42:10.516Z,17.60
2018-09-03T19:44:38.273Z,17.17
2018-09-03T19:47:05.611Z,17.07
2018-09-03T19:49:33.471Z,17.10
2018-09-03T19:52:01.029Z,18.27
2018-09-03T19:54:28.450Z,18.37
2018-09-03T19:56:56.756Z,17.10
2018-09-03T19:59:24.842Z,17.37
2018-09-03T20:01:54.186Z,17.37
2018-09-03T20:04:25.464Z,18.50
2018-09-03T20:06:52.923Z,18.70
2018-09-03T20:09:21.902Z,19.10
2018-09-03T20:11:49.287Z,18.43
2018-09-03T20:14:16.684Z,19.37
2018-09-03T20:16:44.141Z,20.07
2018-09-03T20:19:11.575Z,19.20
2018-09-03T20:21:40.140Z,22.70
2018-09-03T20:24:07.625Z,22.77
2018-09-03T20:26:35.086Z,21.67
2018-09-03T20:29:02.498Z,21.97
2018-09-03T20:31:29.997Z,22.90
2018-09-03T20:33:58.024Z,21.10
2018-09-03T20:36:27.180Z,21.40
2018-09-03T20:38:54.414Z,23.20
2018-09-03T20:41:21.839Z,25.83
2018-09-03T20:43:49.942Z,23.10
2018-09-03T20:48:44.725Z,19.20
2018-09-03T20:51:12.662Z,19.47
2018-09-03T20:53:41.211Z,20.57
2018-09-03T20:56:09.385Z,21.73
2018-09-03T20:58:45.221Z,22.33
2018-09-03T21:01:13.499Z,22.17
2018-09-03T21:03:41.327Z,21.80
2018-09-03T21:06:08.834Z,24.67
2018-09-03T21:08:36.210Z,20.17
2018-09-03T21:11:03.812Z,19.90
2018-09-03T21:13:31.417Z,17.97
2018-09-03T21:15:58.863Z,20.70
2018-09-03T21:18:26.878Z,19.73
2018-09-03T21:20:55.008Z,18.40
2018-09-03T21:23:27.713Z,18.70
2018-09-03T21:25:55.425Z,17.93
2018-09-03T21:28:23.755Z,18.93
2018-09-03T21:30:51.056Z,21.27
2018-09-03T21:33:18.984Z,22.83
2018-09-03T21:35:47.700Z,20.10
2018-09-03T21:38:15.698Z,21.47
2018-09-03T21:40:43.818Z,17.87
2018-09-03T21:43:11.364Z,19.47
2018-09-03T21:45:40.011Z,19.60
2018-09-03T21:48:07.534Z,21.50
2018-09-03T21:50:35.327Z,21.37
2018-09-03T21:53:03.325Z,21.23
2018-09-03T21:55:35.569Z,23.30
2018-09-03T21:58:02.921Z,22.80
2018-09-03T22:00:34.707Z,20.50
2018-09-03T22:03:02.060Z,23.00
2018-09-03T22:05:34.821Z,21.97
2018-09-03T22:08:02.324Z,23.20
2018-09-03T22:10:30.235Z,21.20
2018-09-03T22:12:57.634Z,21.83
2018-09-03T22:15:24.991Z,22.07
2018-09-03T22:17:52.779Z,21.83
2018-09-03T22:20:20.082Z,19.53
2018-09-03T22:22:48.340Z,22.43
2018-09-03T22:25:21.067Z,21.93
2018-09-03T22:27:48.798Z,21.60
2018-09-03T22:30:16.793Z,23.30
2018-09-03T22:32:44.997Z,20.85
2018-09-03T22:35:12.455Z,21.83
2018-09-03T22:37:39.919Z,24.57
2018-09-03T22:40:07.298Z,25.83
2018-09-03T22:42:35.588Z,22.22
2018-09-03T22:45:03.675Z,25.23
2018-09-03T22:47:31.095Z,23.53
2018-09-03T22:49:59.248Z,25.10
2018-09-03T22:52:26.666Z,25.40
2018-09-03T22:54:54.018Z,24.17
2018-09-03T22:57:25.275Z,25.30
2018-09-03T22:59:57.402Z,28.50
2018-09-03T23:02:25.729Z,29.23
2018-09-03T23:04:54.360Z,28.20
2018-09-03T23:07:21.834Z,23.47
2018-09-03T23:09:49.357Z,31.30
2018-09-03T23:12:21.572Z,30.60
2018-09-03T23:14:49.238Z,34.43
2018-09-03T23:17:16.714Z,31.48
2018-09-03T23:19:44.088Z,33.93
2018-09-03T23:22:11.435Z,37.60
2018-09-03T23:24:38.900Z,35.65
2018-09-03T23:27:06.333Z,37.33
2018-09-03T23:29:33.805Z,37.25
2018-09-03T23:32:01.319Z,33.90
2018-09-03T23:34:28.737Z,38.83
2018-09-03T23:36:56.921Z,38.23
2018-09-03T23:39:24.267Z,36.80
2018-09-03T23:41:55.897Z,37.13
2018-09-03T23:44:23.713Z,33.45
2018-09-03T23:46:52.086Z,34.20
2018-09-03T23:49:19.948Z,37.75
2018-09-03T23:51:47.267Z,34.40
2018-09-03T23:54:14.641Z,34.30
2018-09-03T23:56:45.828Z,36.43
2018-09-03T23:59:13.205Z,35.75
